sensor_id;sensor_type;location;lat;lon;timestamp;P1;durP1;ratioP1;P2;durP2;ratioP2
76714;SDS011;65644;44.990;20.288;2024-03-23T00:54:01;54.30;;;35.63;;
76714;SDS011;65644;44.990;20.288;2024-03-23T00:56:28;54.05;;;36.38;;
76714;SDS011;65644;44.990;20.288;2024-03-23T00:58:54;55.70;;;36.20;;
76714;SDS011;65644;44.990;20.288;2024-03-23T01:01:20;59.13;;;37.15;;
76714;SDS011;65644;44.990;20.288;2024-03-23T01:03:47;52.50;;;36.25;;
76714;SDS011;65644;44.990;20.288;2024-03-23T01:06:13;59.50;;;36.88;;
76714;SDS011;65644;44.990;20.288;2024-03-23T01:08:39;55.08;;;35.30;;
76714;SDS011;65644;44.990;20.288;2024-03-23T01:11:05;54.08;;;36.10;;
76714;SDS011;65644;44.990;20.288;2024-03-23T01:13:31;51.70;;;34.08;;
76714;SDS011;65644;44.990;20.288;2024-03-23T01:15:57;53.67;;;35.63;;
76714;SDS011;65644;44.990;20.288;2024-03-23T01:18:24;51.80;;;33.88;;
76714;SDS011;65644;44.990;20.288;2024-03-23T01:20:51;71.47;;;39.72;;
76714;SDS011;65644;44.990;20.288;2024-03-23T01:23:17;84.30;;;46.75;;
76714;SDS011;65644;44.990;20.288;2024-03-23T01:25:43;156.38;;;67.25;;
76714;SDS011;65644;44.990;20.288;2024-03-23T01:28:09;81.88;;;46.55;;
76714;SDS011;65644;44.990;20.288;2024-03-23T01:30:35;91.13;;;50.78;;
76714;SDS011;65644;44.990;20.288;2024-03-23T01:33:02;67.57;;;40.33;;
76714;SDS011;65644;44.990;20.288;2024-03-23T01:35:28;57.53;;;37.35;;
76714;SDS011;65644;44.990;20.288;2024-03-23T01:37:54;55.55;;;35.78;;
76714;SDS011;65644;44.990;20.288;2024-03-23T01:40:21;54.47;;;35.05;;
76714;SDS011;65644;44.990;20.288;2024-03-23T01:42:56;54.92;;;35.53;;
76714;SDS011;65644;44.990;20.288;2024-03-23T01:45:23;60.92;;;35.92;;
76714;SDS011;65644;44.990;20.288;2024-03-23T01:47:49;56.47;;;36.67;;
76714;SDS011;65644;44.990;20.288;2024-03-23T01:50:16;54.40;;;35.50;;
76714;SDS011;65644;44.990;20.288;2024-03-23T01:52:42;54.53;;;36.33;;
76714;SDS011;65644;44.990;20.288;2024-03-23T01:55:09;56.20;;;36.42;;
76714;SDS011;65644;44.990;20.288;2024-03-23T01:57:36;61.05;;;37.55;;
76714;SDS011;65644;44.990;20.288;2024-03-23T02:00:02;54.47;;;35.13;;
76714;SDS011;65644;44.990;20.288;2024-03-23T02:02:28;56.47;;;37.25;;
76714;SDS011;65644;44.990;20.288;2024-03-23T02:04:54;61.60;;;37.03;;
76714;SDS011;65644;44.990;20.288;2024-03-23T02:07:20;56.47;;;36.58;;
76714;SDS011;65644;44.990;20.288;2024-03-23T02:09:46;57.72;;;36.58;;
76714;SDS011;65644;44.990;20.288;2024-03-23T02:12:12;60.60;;;37.20;;
76714;SDS011;65644;44.990;20.288;2024-03-23T02:14:39;59.22;;;37.13;;
76714;SDS011;65644;44.990;20.288;2024-03-23T02:17:05;59.05;;;36.42;;
76714;SDS011;65644;44.990;20.288;2024-03-23T02:19:31;54.55;;;35.30;;
76714;SDS011;65644;44.990;20.288;2024-03-23T02:21:57;58.20;;;35.97;;
76714;SDS011;65644;44.990;20.288;2024-03-23T02:24:23;69.35;;;43.03;;
76714;SDS011;65644;44.990;20.288;2024-03-23T02:26:49;58.97;;;39.03;;
76714;SDS011;65644;44.990;20.288;2024-03-23T02:29:15;52.67;;;36.67;;
76714;SDS011;65644;44.990;20.288;2024-03-23T02:31:41;54.35;;;34.75;;
76714;SDS011;65644;44.990;20.288;2024-03-23T02:34:07;49.17;;;33.33;;
76714;SDS011;65644;44.990;20.288;2024-03-23T02:36:34;50.13;;;34.08;;
76714;SDS011;65644;44.990;20.288;2024-03-23T02:39:00;50.10;;;32.17;;
76714;SDS011;65644;44.990;20.288;2024-03-23T02:41:26;49.83;;;34.17;;
76714;SDS011;65644;44.990;20.288;2024-03-23T02:43:52;56.15;;;37.47;;
76714;SDS011;65644;44.990;20.288;2024-03-23T02:46:18;80.80;;;55.53;;
76714;SDS011;65644;44.990;20.288;2024-03-23T02:48:44;58.50;;;39.97;;
76714;SDS011;65644;44.990;20.288;2024-03-23T02:51:10;58.20;;;37.67;;
76714;SDS011;65644;44.990;20.288;2024-03-23T02:53:37;57.88;;;36.63;;
76714;SDS011;65644;44.990;20.288;2024-03-23T02:56:03;56.13;;;39.47;;
76714;SDS011;65644;44.990;20.288;2024-03-23T02:58:29;57.53;;;37.28;;
76714;SDS011;65644;44.990;20.288;2024-03-23T03:00:55;77.28;;;46.72;;
76714;SDS011;65644;44.990;20.288;2024-03-23T03:03:21;96.50;;;60.00;;
76714;SDS011;65644;44.990;20.288;2024-03-23T03:05:47;78.72;;;54.30;;
76714;SDS011;65644;44.990;20.288;2024-03-23T03:08:13;111.40;;;70.30;;
76714;SDS011;65644;44.990;20.288;2024-03-23T03:10:39;93.00;;;60.78;;
76714;SDS011;65644;44.990;20.288;2024-03-23T03:13:06;139.10;;;78.80;;
76714;SDS011;65644;44.990;20.288;2024-03-23T03:15:32;85.68;;;52.33;;
76714;SDS011;65644;44.990;20.288;2024-03-23T03:17:58;89.10;;;55.08;;
76714;SDS011;65644;44.990;20.288;2024-03-23T03:20:24;73.32;;;47.55;;
76714;SDS011;65644;44.990;20.288;2024-03-23T03:22:50;68.45;;;46.95;;
76714;SDS011;65644;44.990;20.288;2024-03-23T03:25:18;61.10;;;43.90;;
76714;SDS011;65644;44.990;20.288;2024-03-23T03:27:44;67.28;;;45.63;;
76714;SDS011;65644;44.990;20.288;2024-03-23T03:30:11;60.55;;;42.90;;
76714;SDS011;65644;44.990;20.288;2024-03-23T03:32:37;62.50;;;41.42;;
76714;SDS011;65644;44.990;20.288;2024-03-23T03:35:03;60.30;;;40.72;;
76714;SDS011;65644;44.990;20.288;2024-03-23T03:37:30;61.88;;;39.63;;
76714;SDS011;65644;44.990;20.288;2024-03-23T03:39:56;54.78;;;36.78;;
76714;SDS011;65644;44.990;20.288;2024-03-23T03:42:22;51.88;;;34.92;;
76714;SDS011;65644;44.990;20.288;2024-03-23T03:44:48;59.88;;;36.75;;
76714;SDS011;65644;44.990;20.288;2024-03-23T03:47:14;56.50;;;36.45;;
76714;SDS011;65644;44.990;20.288;2024-03-23T03:49:41;55.45;;;36.65;;
76714;SDS011;65644;44.990;20.288;2024-03-23T03:52:07;54.22;;;36.65;;
76714;SDS011;65644;44.990;20.288;2024-03-23T03:54:33;57.05;;;38.00;;
76714;SDS011;65644;44.990;20.288;2024-03-23T03:56:59;51.90;;;36.95;;
76714;SDS011;65644;44.990;20.288;2024-03-23T03:59:25;54.58;;;37.53;;
76714;SDS011;65644;44.990;20.288;2024-03-23T04:01:52;59.28;;;38.63;;
76714;SDS011;65644;44.990;20.288;2024-03-23T04:04:18;57.65;;;37.42;;
76714;SDS011;65644;44.990;20.288;2024-03-23T04:06:45;66.47;;;40.05;;
76714;SDS011;65644;44.990;20.288;2024-03-23T04:09:11;61.00;;;38.95;;
76714;SDS011;65644;44.990;20.288;2024-03-23T04:11:37;54.97;;;37.55;;
76714;SDS011;65644;44.990;20.288;2024-03-23T04:14:03;54.83;;;37.70;;
76714;SDS011;65644;44.990;20.288;2024-03-23T04:16:33;59.83;;;38.10;;
76714;SDS011;65644;44.990;20.288;2024-03-23T04:18:59;58.78;;;38.00;;
76714;SDS011;65644;44.990;20.288;2024-03-23T04:21:26;61.88;;;40.35;;
76714;SDS011;65644;44.990;20.288;2024-03-23T04:23:52;57.95;;;40.28;;
76714;SDS011;65644;44.990;20.288;2024-03-23T04:26:18;54.45;;;38.58;;
76714;SDS011;65644;44.990;20.288;2024-03-23T04:28:44;65.85;;;42.20;;
76714;SDS011;65644;44.990;20.288;2024-03-23T04:31:10;57.50;;;39.50;;
76714;SDS011;65644;44.990;20.288;2024-03-23T04:33:36;54.75;;;40.13;;
76714;SDS011;65644;44.990;20.288;2024-03-23T04:36:03;60.15;;;41.92;;
76714;SDS011;65644;44.990;20.288;2024-03-23T04:38:29;61.22;;;39.55;;
76714;SDS011;65644;44.990;20.288;2024-03-23T04:40:55;58.33;;;38.90;;
76714;SDS011;65644;44.990;20.288;2024-03-23T04:43:22;60.60;;;40.97;;
76714;SDS011;65644;44.990;20.288;2024-03-23T04:45:48;56.63;;;38.95;;
76714;SDS011;65644;44.990;20.288;2024-03-23T04:48:14;59.55;;;39.15;;
76714;SDS011;65644;44.990;20.288;2024-03-23T04:50:41;61.65;;;41.50;;
76714;SDS011;65644;44.990;20.288;2024-03-23T04:53:07;60.53;;;40.28;;
76714;SDS011;65644;44.990;20.288;2024-03-23T04:55:33;57.13;;;40.45;;
76714;SDS011;65644;44.990;20.288;2024-03-23T04:57:59;59.90;;;41.47;;
76714;SDS011;65644;44.990;20.288;2024-03-23T05:00:25;67.43;;;42.17;;
76714;SDS011;65644;44.990;20.288;2024-03-23T05:02:51;66.22;;;43.65;;
76714;SDS011;65644;44.990;20.288;2024-03-23T05:05:18;58.38;;;40.65;;
76714;SDS011;65644;44.990;20.288;2024-03-23T05:07:44;64.57;;;42.42;;
76714;SDS011;65644;44.990;20.288;2024-03-23T05:10:10;59.42;;;41.67;;
76714;SDS011;65644;44.990;20.288;2024-03-23T05:12:38;66.63;;;43.47;;
76714;SDS011;65644;44.990;20.288;2024-03-23T05:15:05;64.10;;;45.33;;
76714;SDS011;65644;44.990;20.288;2024-03-23T05:17:32;73.93;;;47.53;;
76714;SDS011;65644;44.990;20.288;2024-03-23T05:19:59;65.55;;;46.72;;
76714;SDS011;65644;44.990;20.288;2024-03-23T05:22:25;67.57;;;46.85;;
76714;SDS011;65644;44.990;20.288;2024-03-23T05:24:52;64.95;;;44.97;;
76714;SDS011;65644;44.990;20.288;2024-03-23T05:27:18;71.63;;;46.85;;
76714;SDS011;65644;44.990;20.288;2024-03-23T05:29:45;66.90;;;46.22;;
76714;SDS011;65644;44.990;20.288;2024-03-23T05:32:12;64.32;;;44.42;;
76714;SDS011;65644;44.990;20.288;2024-03-23T05:34:38;65.55;;;44.13;;
76714;SDS011;65644;44.990;20.288;2024-03-23T05:37:04;64.90;;;43.22;;
76714;SDS011;65644;44.990;20.288;2024-03-23T05:39:30;64.95;;;44.22;;
76714;SDS011;65644;44.990;20.288;2024-03-23T05:41:57;66.95;;;45.58;;
76714;SDS011;65644;44.990;20.288;2024-03-23T05:44:23;69.90;;;45.05;;
76714;SDS011;65644;44.990;20.288;2024-03-23T05:46:49;67.53;;;44.13;;
76714;SDS011;65644;44.990;20.288;2024-03-23T05:49:15;64.13;;;45.20;;
76714;SDS011;65644;44.990;20.288;2024-03-23T05:51:43;66.70;;;43.47;;
76714;SDS011;65644;44.990;20.288;2024-03-23T05:54:09;61.20;;;42.47;;
76714;SDS011;65644;44.990;20.288;2024-03-23T05:56:35;65.38;;;43.15;;
76714;SDS011;65644;44.990;20.288;2024-03-23T05:59:01;62.28;;;42.03;;
76714;SDS011;65644;44.990;20.288;2024-03-23T06:01:28;63.22;;;42.90;;
76714;SDS011;65644;44.990;20.288;2024-03-23T06:03:57;63.83;;;42.75;;
76714;SDS011;65644;44.990;20.288;2024-03-23T06:06:23;62.03;;;41.78;;
76714;SDS011;65644;44.990;20.288;2024-03-23T06:08:50;62.58;;;41.17;;
76714;SDS011;65644;44.990;20.288;2024-03-23T06:11:16;71.72;;;46.10;;
76714;SDS011;65644;44.990;20.288;2024-03-23T06:13:42;79.82;;;48.63;;
76714;SDS011;65644;44.990;20.288;2024-03-23T06:16:08;124.10;;;69.50;;
76714;SDS011;65644;44.990;20.288;2024-03-23T06:18:35;68.25;;;45.47;;
76714;SDS011;65644;44.990;20.288;2024-03-23T06:21:01;65.97;;;43.30;;
76714;SDS011;65644;44.990;20.288;2024-03-23T06:23:27;75.32;;;51.08;;
76714;SDS011;65644;44.990;20.288;2024-03-23T06:25:53;62.70;;;41.78;;
76714;SDS011;65644;44.990;20.288;2024-03-23T06:28:19;58.58;;;40.35;;
76714;SDS011;65644;44.990;20.288;2024-03-23T06:30:46;55.67;;;39.83;;
76714;SDS011;65644;44.990;20.288;2024-03-23T06:33:12;59.15;;;42.30;;
76714;SDS011;65644;44.990;20.288;2024-03-23T06:35:39;61.50;;;40.97;;
76714;SDS011;65644;44.990;20.288;2024-03-23T06:38:06;56.35;;;40.92;;
76714;SDS011;65644;44.990;20.288;2024-03-23T06:40:32;60.72;;;41.92;;
76714;SDS011;65644;44.990;20.288;2024-03-23T06:42:58;56.92;;;38.35;;
76714;SDS011;65644;44.990;20.288;2024-03-23T06:45:24;57.47;;;40.42;;
76714;SDS011;65644;44.990;20.288;2024-03-23T06:47:52;59.72;;;40.75;;
76714;SDS011;65644;44.990;20.288;2024-03-23T06:50:20;58.50;;;39.65;;
76714;SDS011;65644;44.990;20.288;2024-03-23T06:52:47;54.75;;;37.85;;
76714;SDS011;65644;44.990;20.288;2024-03-23T06:55:13;56.15;;;39.10;;
76714;SDS011;65644;44.990;20.288;2024-03-23T06:57:39;58.78;;;38.55;;
76714;SDS011;65644;44.990;20.288;2024-03-23T07:00:06;55.97;;;38.03;;
76714;SDS011;65644;44.990;20.288;2024-03-23T07:02:35;55.17;;;39.40;;
76714;SDS011;65644;44.990;20.288;2024-03-23T07:05:01;56.97;;;38.83;;
76714;SDS011;65644;44.990;20.288;2024-03-23T07:07:28;64.68;;;42.55;;
76714;SDS011;65644;44.990;20.288;2024-03-23T07:09:55;68.97;;;43.30;;
76714;SDS011;65644;44.990;20.288;2024-03-23T07:12:21;55.70;;;38.47;;
76714;SDS011;65644;44.990;20.288;2024-03-23T07:14:47;48.45;;;35.97;;
76714;SDS011;65644;44.990;20.288;2024-03-23T07:17:13;44.63;;;33.65;;
76714;SDS011;65644;44.990;20.288;2024-03-23T07:19:39;51.83;;;36.50;;
76714;SDS011;65644;44.990;20.288;2024-03-23T07:22:05;54.72;;;35.45;;
76714;SDS011;65644;44.990;20.288;2024-03-23T07:24:31;46.83;;;33.22;;
76714;SDS011;65644;44.990;20.288;2024-03-23T07:26:58;46.63;;;31.58;;
76714;SDS011;65644;44.990;20.288;2024-03-23T07:29:24;44.55;;;32.25;;
76714;SDS011;65644;44.990;20.288;2024-03-23T07:31:50;44.50;;;30.48;;
76714;SDS011;65644;44.990;20.288;2024-03-23T07:34:16;46.40;;;30.80;;
76714;SDS011;65644;44.990;20.288;2024-03-23T07:36:42;41.95;;;29.55;;
76714;SDS011;65644;44.990;20.288;2024-03-23T07:39:08;40.97;;;30.30;;
76714;SDS011;65644;44.990;20.288;2024-03-23T07:41:35;39.83;;;29.67;;
76714;SDS011;65644;44.990;20.288;2024-03-23T07:44:01;40.17;;;28.10;;
76714;SDS011;65644;44.990;20.288;2024-03-23T07:46:27;41.65;;;28.23;;
76714;SDS011;65644;44.990;20.288;2024-03-23T07:48:53;37.35;;;27.17;;
76714;SDS011;65644;44.990;20.288;2024-03-23T07:51:22;38.60;;;26.02;;
76714;SDS011;65644;44.990;20.288;2024-03-23T07:53:48;33.78;;;24.23;;
76714;SDS011;65644;44.990;20.288;2024-03-23T07:56:15;36.25;;;24.40;;
76714;SDS011;65644;44.990;20.288;2024-03-23T07:58:43;32.53;;;22.65;;
76714;SDS011;65644;44.990;20.288;2024-03-23T08:01:09;32.03;;;22.45;;
76714;SDS011;65644;44.990;20.288;2024-03-23T08:03:39;31.30;;;22.33;;
76714;SDS011;65644;44.990;20.288;2024-03-23T08:08:37;32.83;;;22.00;;
76714;SDS011;65644;44.990;20.288;2024-03-23T08:11:06;30.25;;;22.20;;
76714;SDS011;65644;44.990;20.288;2024-03-23T08:16:04;28.50;;;17.88;;
76714;SDS011;65644;44.990;20.288;2024-03-23T08:18:31;26.88;;;17.42;;
76714;SDS011;65644;44.990;20.288;2024-03-23T08:21:03;24.95;;;15.77;;
76714;SDS011;65644;44.990;20.288;2024-03-23T08:23:31;22.25;;;15.32;;
76714;SDS011;65644;44.990;20.288;2024-03-23T08:26:02;19.33;;;13.48;;
76714;SDS011;65644;44.990;20.288;2024-03-23T08:28:29;18.15;;;13.77;;
76714;SDS011;65644;44.990;20.288;2024-03-23T08:30:55;21.65;;;11.70;;
76714;SDS011;65644;44.990;20.288;2024-03-23T08:33:22;19.33;;;12.00;;
76714;SDS011;65644;44.990;20.288;2024-03-23T08:35:54;18.75;;;12.32;;
76714;SDS011;65644;44.990;20.288;2024-03-23T08:38:21;16.65;;;11.32;;
76714;SDS011;65644;44.990;20.288;2024-03-23T08:40:47;15.32;;;10.73;;
76714;SDS011;65644;44.990;20.288;2024-03-23T08:43:13;17.70;;;11.20;;
76714;SDS011;65644;44.990;20.288;2024-03-23T08:45:39;14.65;;;9.93;;
76714;SDS011;65644;44.990;20.288;2024-03-23T08:48:06;17.42;;;10.57;;
76714;SDS011;65644;44.990;20.288;2024-03-23T08:50:32;16.70;;;11.18;;
76714;SDS011;65644;44.990;20.288;2024-03-23T08:52:58;14.85;;;10.50;;
76714;SDS011;65644;44.990;20.288;2024-03-23T08:55:24;15.30;;;10.38;;
76714;SDS011;65644;44.990;20.288;2024-03-23T08:57:50;19.08;;;11.00;;
76714;SDS011;65644;44.990;20.288;2024-03-23T09:00:16;19.63;;;10.27;;
76714;SDS011;65644;44.990;20.288;2024-03-23T09:02:42;16.95;;;10.23;;
76714;SDS011;65644;44.990;20.288;2024-03-23T09:05:13;18.00;;;10.15;;
76714;SDS011;65644;44.990;20.288;2024-03-23T09:07:39;18.88;;;11.10;;
76714;SDS011;65644;44.990;20.288;2024-03-23T09:10:06;14.48;;;9.90;;
76714;SDS011;65644;44.990;20.288;2024-03-23T09:12:32;16.55;;;10.07;;
76714;SDS011;65644;44.990;20.288;2024-03-23T09:14:59;24.75;;;10.50;;
76714;SDS011;65644;44.990;20.288;2024-03-23T09:17:25;19.08;;;11.20;;
76714;SDS011;65644;44.990;20.288;2024-03-23T09:19:51;18.17;;;9.70;;
76714;SDS011;65644;44.990;20.288;2024-03-23T09:22:18;13.95;;;9.32;;
76714;SDS011;65644;44.990;20.288;2024-03-23T09:24:44;15.55;;;9.00;;
76714;SDS011;65644;44.990;20.288;2024-03-23T09:27:10;12.43;;;9.07;;
76714;SDS011;65644;44.990;20.288;2024-03-23T09:29:36;14.73;;;8.27;;
76714;SDS011;65644;44.990;20.288;2024-03-23T09:32:02;43.58;;;18.00;;
76714;SDS011;65644;44.990;20.288;2024-03-23T09:34:31;15.50;;;10.35;;
76714;SDS011;65644;44.990;20.288;2024-03-23T09:36:57;48.35;;;19.20;;
76714;SDS011;65644;44.990;20.288;2024-03-23T09:39:23;59.42;;;22.10;;
76714;SDS011;65644;44.990;20.288;2024-03-23T09:41:49;17.00;;;10.55;;
76714;SDS011;65644;44.990;20.288;2024-03-23T09:44:15;23.20;;;12.05;;
76714;SDS011;65644;44.990;20.288;2024-03-23T09:46:42;15.98;;;9.15;;
76714;SDS011;65644;44.990;20.288;2024-03-23T09:49:08;16.73;;;8.95;;
76714;SDS011;65644;44.990;20.288;2024-03-23T09:51:37;20.08;;;10.23;;
76714;SDS011;65644;44.990;20.288;2024-03-23T09:54:03;29.95;;;13.77;;
76714;SDS011;65644;44.990;20.288;2024-03-23T09:56:29;29.08;;;11.82;;
76714;SDS011;65644;44.990;20.288;2024-03-23T09:59:02;14.75;;;9.73;;
76714;SDS011;65644;44.990;20.288;2024-03-23T10:01:31;14.93;;;9.52;;
76714;SDS011;65644;44.990;20.288;2024-03-23T10:03:57;14.30;;;8.18;;
76714;SDS011;65644;44.990;20.288;2024-03-23T10:06:23;10.55;;;7.60;;
76714;SDS011;65644;44.990;20.288;2024-03-23T10:08:52;15.52;;;8.57;;
76714;SDS011;65644;44.990;20.288;2024-03-23T10:11:20;13.63;;;8.82;;
76714;SDS011;65644;44.990;20.288;2024-03-23T10:13:46;11.07;;;9.07;;
76714;SDS011;65644;44.990;20.288;2024-03-23T10:16:20;13.50;;;8.57;;
76714;SDS011;65644;44.990;20.288;2024-03-23T10:21:14;12.40;;;7.75;;
76714;SDS011;65644;44.990;20.288;2024-03-23T10:23:44;11.60;;;6.95;;
76714;SDS011;65644;44.990;20.288;2024-03-23T10:26:15;5.95;;;4.97;;
76714;SDS011;65644;44.990;20.288;2024-03-23T10:31:23;5.53;;;4.82;;
76714;SDS011;65644;44.990;20.288;2024-03-23T10:33:50;7.68;;;5.30;;
76714;SDS011;65644;44.990;20.288;2024-03-23T10:36:19;6.10;;;5.47;;
76714;SDS011;65644;44.990;20.288;2024-03-23T10:38:45;8.32;;;4.65;;
76714;SDS011;65644;44.990;20.288;2024-03-23T10:41:12;7.20;;;4.35;;
76714;SDS011;65644;44.990;20.288;2024-03-23T10:43:38;5.28;;;4.10;;
76714;SDS011;65644;44.990;20.288;2024-03-23T10:46:05;6.72;;;4.95;;
76714;SDS011;65644;44.990;20.288;2024-03-23T10:48:34;4.90;;;4.15;;
76714;SDS011;65644;44.990;20.288;2024-03-23T10:51:01;9.60;;;4.80;;
76714;SDS011;65644;44.990;20.288;2024-03-23T10:53:27;9.90;;;4.90;;
76714;SDS011;65644;44.990;20.288;2024-03-23T10:55:54;6.80;;;4.05;;
76714;SDS011;65644;44.990;20.288;2024-03-23T10:58:26;8.20;;;4.78;;
76714;SDS011;65644;44.990;20.288;2024-03-23T11:00:53;7.88;;;4.90;;
76714;SDS011;65644;44.990;20.288;2024-03-23T11:03:32;7.07;;;4.28;;
76714;SDS011;65644;44.990;20.288;2024-03-23T11:05:59;6.22;;;3.65;;
76714;SDS011;65644;44.990;20.288;2024-03-23T11:13:52;5.35;;;3.90;;
76714;SDS011;65644;44.990;20.288;2024-03-23T11:16:22;4.20;;;3.75;;
76714;SDS011;65644;44.990;20.288;2024-03-23T11:18:49;4.45;;;3.78;;
76714;SDS011;65644;44.990;20.288;2024-03-23T11:24:15;5.53;;;3.55;;
76714;SDS011;65644;44.990;20.288;2024-03-23T11:26:41;6.15;;;3.83;;
76714;SDS011;65644;44.990;20.288;2024-03-23T11:29:13;7.18;;;3.58;;
76714;SDS011;65644;44.990;20.288;2024-03-23T11:31:52;7.43;;;3.70;;
76714;SDS011;65644;44.990;20.288;2024-03-23T11:34:19;5.35;;;3.55;;
76714;SDS011;65644;44.990;20.288;2024-03-23T11:36:46;7.80;;;5.25;;
76714;SDS011;65644;44.990;20.288;2024-03-23T11:39:15;9.00;;;5.03;;
76714;SDS011;65644;44.990;20.288;2024-03-23T11:41:51;8.25;;;5.53;;
76714;SDS011;65644;44.990;20.288;2024-03-23T11:44:36;5.35;;;4.25;;
76714;SDS011;65644;44.990;20.288;2024-03-23T11:47:08;6.13;;;4.10;;
76714;SDS011;65644;44.990;20.288;2024-03-23T11:49:35;5.23;;;3.53;;
76714;SDS011;65644;44.990;20.288;2024-03-23T11:52:05;5.32;;;3.13;;
76714;SDS011;65644;44.990;20.288;2024-03-23T11:54:32;4.63;;;3.20;;
76714;SDS011;65644;44.990;20.288;2024-03-23T11:57:07;9.80;;;3.95;;
76714;SDS011;65644;44.990;20.288;2024-03-23T12:02:00;7.20;;;3.80;;
76714;SDS011;65644;44.990;20.288;2024-03-23T12:04:27;3.47;;;3.17;;
76714;SDS011;65644;44.990;20.288;2024-03-23T12:09:35;4.35;;;3.90;;
76714;SDS011;65644;44.990;20.288;2024-03-23T12:12:08;6.85;;;3.85;;
76714;SDS011;65644;44.990;20.288;2024-03-23T12:14:34;4.70;;;3.17;;
76714;SDS011;65644;44.990;20.288;2024-03-23T12:17:08;5.38;;;3.40;;
76714;SDS011;65644;44.990;20.288;2024-03-23T12:19:34;8.23;;;3.55;;
76714;SDS011;65644;44.990;20.288;2024-03-23T12:22:00;4.45;;;3.58;;
76714;SDS011;65644;44.990;20.288;2024-03-23T12:24:26;6.03;;;3.50;;
76714;SDS011;65644;44.990;20.288;2024-03-23T12:26:52;4.18;;;3.30;;
76714;SDS011;65644;44.990;20.288;2024-03-23T12:29:18;4.70;;;2.88;;
76714;SDS011;65644;44.990;20.288;2024-03-23T12:31:45;3.60;;;3.00;;
76714;SDS011;65644;44.990;20.288;2024-03-23T12:34:11;7.20;;;3.10;;
76714;SDS011;65644;44.990;20.288;2024-03-23T12:36:37;5.57;;;2.42;;
76714;SDS011;65644;44.990;20.288;2024-03-23T12:39:04;4.70;;;3.63;;
76714;SDS011;65644;44.990;20.288;2024-03-23T12:41:30;4.72;;;3.13;;
76714;SDS011;65644;44.990;20.288;2024-03-23T12:43:56;4.45;;;2.78;;
76714;SDS011;65644;44.990;20.288;2024-03-23T12:46:22;4.03;;;2.50;;
76714;SDS011;65644;44.990;20.288;2024-03-23T12:48:48;6.55;;;2.85;;
76714;SDS011;65644;44.990;20.288;2024-03-23T12:51:14;8.25;;;2.58;;
76714;SDS011;65644;44.990;20.288;2024-03-23T12:53:40;2.75;;;1.92;;
76714;SDS011;65644;44.990;20.288;2024-03-23T12:56:07;2.30;;;2.10;;
76714;SDS011;65644;44.990;20.288;2024-03-23T12:58:33;4.25;;;2.13;;
76714;SDS011;65644;44.990;20.288;2024-03-23T13:00:59;2.90;;;2.45;;
76714;SDS011;65644;44.990;20.288;2024-03-23T13:03:25;3.47;;;2.08;;
76714;SDS011;65644;44.990;20.288;2024-03-23T13:05:51;3.97;;;2.30;;
76714;SDS011;65644;44.990;20.288;2024-03-23T13:08:18;2.28;;;1.95;;
76714;SDS011;65644;44.990;20.288;2024-03-23T13:10:44;3.45;;;1.52;;
76714;SDS011;65644;44.990;20.288;2024-03-23T13:13:12;3.67;;;1.83;;
76714;SDS011;65644;44.990;20.288;2024-03-23T13:15:38;5.68;;;2.10;;
76714;SDS011;65644;44.990;20.288;2024-03-23T13:18:04;2.58;;;2.38;;
76714;SDS011;65644;44.990;20.288;2024-03-23T13:20:30;4.05;;;1.92;;
76714;SDS011;65644;44.990;20.288;2024-03-23T13:22:56;3.75;;;1.90;;
76714;SDS011;65644;44.990;20.288;2024-03-23T13:25:22;4.28;;;1.83;;
76714;SDS011;65644;44.990;20.288;2024-03-23T13:27:48;2.38;;;2.00;;
76714;SDS011;65644;44.990;20.288;2024-03-23T13:30:15;4.40;;;1.42;;
76714;SDS011;65644;44.990;20.288;2024-03-23T13:32:41;8.07;;;2.28;;
76714;SDS011;65644;44.990;20.288;2024-03-23T13:35:07;4.00;;;1.77;;
76714;SDS011;65644;44.990;20.288;2024-03-23T13:37:33;8.75;;;1.90;;
76714;SDS011;65644;44.990;20.288;2024-03-23T13:39:59;3.70;;;1.50;;
76714;SDS011;65644;44.990;20.288;2024-03-23T13:42:25;2.65;;;1.23;;
76714;SDS011;65644;44.990;20.288;2024-03-23T13:44:52;2.33;;;1.60;;
76714;SDS011;65644;44.990;20.288;2024-03-23T13:47:18;1.70;;;1.60;;
76714;SDS011;65644;44.990;20.288;2024-03-23T13:49:44;5.90;;;1.70;;
76714;SDS011;65644;44.990;20.288;2024-03-23T13:52:11;4.82;;;1.75;;
76714;SDS011;65644;44.990;20.288;2024-03-23T13:54:37;2.65;;;2.22;;
76714;SDS011;65644;44.990;20.288;2024-03-23T13:57:03;2.78;;;1.83;;
76714;SDS011;65644;44.990;20.288;2024-03-23T13:59:30;3.30;;;1.65;;
76714;SDS011;65644;44.990;20.288;2024-03-23T14:01:56;7.60;;;1.90;;
76714;SDS011;65644;44.990;20.288;2024-03-23T14:04:22;3.58;;;1.85;;
76714;SDS011;65644;44.990;20.288;2024-03-23T14:06:50;6.03;;;2.28;;
76714;SDS011;65644;44.990;20.288;2024-03-23T14:09:16;6.53;;;2.10;;
76714;SDS011;65644;44.990;20.288;2024-03-23T14:11:51;2.67;;;1.20;;
76714;SDS011;65644;44.990;20.288;2024-03-23T14:14:17;5.40;;;1.83;;
76714;SDS011;65644;44.990;20.288;2024-03-23T14:16:43;2.20;;;1.70;;
76714;SDS011;65644;44.990;20.288;2024-03-23T14:19:13;1.70;;;1.60;;
76714;SDS011;65644;44.990;20.288;2024-03-23T14:21:39;8.73;;;3.47;;
76714;SDS011;65644;44.990;20.288;2024-03-23T14:24:05;15.90;;;2.63;;
76714;SDS011;65644;44.990;20.288;2024-03-23T14:26:31;5.93;;;1.90;;
76714;SDS011;65644;44.990;20.288;2024-03-23T14:28:58;4.47;;;2.03;;
76714;SDS011;65644;44.990;20.288;2024-03-23T14:31:24;3.80;;;2.00;;
76714;SDS011;65644;44.990;20.288;2024-03-23T14:33:50;223.07;;;19.17;;
76714;SDS011;65644;44.990;20.288;2024-03-23T14:36:16;12.15;;;2.50;;
76714;SDS011;65644;44.990;20.288;2024-03-23T14:38:49;7.07;;;2.10;;
76714;SDS011;65644;44.990;20.288;2024-03-23T14:41:15;4.05;;;1.60;;
76714;SDS011;65644;44.990;20.288;2024-03-23T14:43:41;2.17;;;1.55;;
76714;SDS011;65644;44.990;20.288;2024-03-23T14:46:13;4.00;;;2.13;;
76714;SDS011;65644;44.990;20.288;2024-03-23T14:48:41;8.52;;;2.33;;
76714;SDS011;65644;44.990;20.288;2024-03-23T14:51:07;4.13;;;2.00;;
76714;SDS011;65644;44.990;20.288;2024-03-23T14:53:34;1.92;;;1.77;;
76714;SDS011;65644;44.990;20.288;2024-03-23T14:56:01;3.88;;;2.15;;
76714;SDS011;65644;44.990;20.288;2024-03-23T14:58:28;4.80;;;2.08;;
76714;SDS011;65644;44.990;20.288;2024-03-23T15:01:06;8.23;;;2.75;;
76714;SDS011;65644;44.990;20.288;2024-03-23T15:03:38;6.15;;;3.22;;
76714;SDS011;65644;44.990;20.288;2024-03-23T15:06:05;4.38;;;2.20;;
76714;SDS011;65644;44.990;20.288;2024-03-23T15:08:31;3.63;;;2.00;;
76714;SDS011;65644;44.990;20.288;2024-03-23T15:11:01;6.15;;;2.40;;
76714;SDS011;65644;44.990;20.288;2024-03-23T15:13:33;2.95;;;2.22;;
76714;SDS011;65644;44.990;20.288;2024-03-23T15:16:00;5.07;;;3.38;;
76714;SDS011;65644;44.990;20.288;2024-03-23T15:18:28;2.55;;;2.08;;
76714;SDS011;65644;44.990;20.288;2024-03-23T15:20:55;4.35;;;2.20;;
76714;SDS011;65644;44.990;20.288;2024-03-23T15:23:22;1.77;;;1.67;;
76714;SDS011;65644;44.990;20.288;2024-03-23T15:25:55;6.47;;;2.70;;
76714;SDS011;65644;44.990;20.288;2024-03-23T15:28:22;5.72;;;2.00;;
76714;SDS011;65644;44.990;20.288;2024-03-23T15:30:49;3.53;;;2.38;;
76714;SDS011;65644;44.990;20.288;2024-03-23T15:33:15;2.65;;;1.92;;